createdAt,value
2022-12-23T00:02:48.804Z,4.80
2022-12-23T00:08:10.453Z,4.80
2022-12-23T00:13:52.048Z,4.81
2022-12-23T00:19:14.071Z,4.82
2022-12-23T00:24:36.001Z,4.84
2022-12-23T00:29:57.502Z,4.82
2022-12-23T00:35:19.964Z,4.80
2022-12-23T00:40:59.956Z,4.77
2022-12-23T00:46:21.905Z,4.77
2022-12-23T00:51:43.813Z,4.80
2022-12-23T00:57:05.843Z,4.85
2022-12-23T01:02:46.437Z,4.90
2022-12-23T01:08:10.475Z,4.89
2022-12-23T01:13:33.032Z,4.86
2022-12-23T01:18:54.640Z,4.76
2022-12-23T01:24:17.169Z,4.70
2022-12-23T01:29:39.395Z,4.67
2022-12-23T01:35:01.324Z,4.66
2022-12-23T01:40:23.070Z,4.65
2022-12-23T01:45:45.331Z,4.64
2022-12-23T01:51:09.503Z,4.61
2022-12-23T01:56:35.626Z,4.53
2022-12-23T02:02:16.509Z,4.41
2022-12-23T02:07:56.953Z,4.26
2022-12-23T02:14:13.034Z,4.20
2022-12-23T02:19:52.777Z,4.09
2022-12-23T02:25:22.421Z,4.02
2022-12-23T02:30:50.638Z,4.05
2022-12-23T02:36:24.661Z,4.06
2022-12-23T02:42:04.435Z,4.09
2022-12-23T02:47:30.558Z,4.03
2022-12-23T02:52:52.609Z,4.06
2022-12-23T02:58:16.548Z,4.08
2022-12-23T03:03:38.943Z,4.11
2022-12-23T03:09:01.307Z,4.15
2022-12-23T03:14:34.930Z,4.08
2022-12-23T03:20:21.709Z,4.11
2022-12-23T03:25:59.277Z,4.16
2022-12-23T03:31:25.801Z,4.25
2022-12-23T03:36:57.591Z,4.32
2022-12-23T03:42:37.184Z,4.40
2022-12-23T03:48:07.123Z,4.44
2022-12-23T03:53:35.631Z,4.46
2022-12-23T03:59:00.240Z,4.48
2022-12-23T04:04:27.578Z,4.47
2022-12-23T04:09:51.617Z,4.46
2022-12-23T04:15:13.645Z,4.46
2022-12-23T04:20:35.269Z,4.43
2022-12-23T04:25:57.276Z,4.42
2022-12-23T04:31:19.248Z,4.44
2022-12-23T04:36:41.158Z,4.45
2022-12-23T04:42:03.091Z,4.46
2022-12-23T04:47:24.716Z,4.44
2022-12-23T04:52:46.352Z,4.45
2022-12-23T04:58:08.474Z,4.46
2022-12-23T05:03:30.905Z,4.48
2022-12-23T05:08:52.736Z,4.51
2022-12-23T05:14:14.973Z,4.53
2022-12-23T05:19:37.095Z,4.60
2022-12-23T05:24:58.923Z,4.63
2022-12-23T05:30:20.958Z,4.57
2022-12-23T05:35:42.881Z,4.59
2022-12-23T05:41:05.216Z,4.67
2022-12-23T05:46:27.406Z,4.73
2022-12-23T05:51:49.473Z,4.72
2022-12-23T05:57:11.402Z,4.67
2022-12-23T06:02:33.489Z,4.70
2022-12-23T06:07:55.584Z,4.75
2022-12-23T06:13:21.016Z,4.80
2022-12-23T06:18:42.837Z,4.87
2022-12-23T06:24:05.463Z,4.95
2022-12-23T06:29:27.597Z,5.03
2022-12-23T06:34:53.491Z,5.06
2022-12-23T06:40:15.369Z,5.09
2022-12-23T06:45:37.426Z,5.10
2022-12-23T06:50:59.126Z,5.10
2022-12-23T06:56:21.364Z,5.20
2022-12-23T07:01:45.177Z,5.28
2022-12-23T07:07:06.923Z,5.33
2022-12-23T07:12:28.747Z,5.41
2022-12-23T07:17:50.487Z,5.44
2022-12-23T07:23:12.502Z,5.48
2022-12-23T07:28:34.135Z,5.55
2022-12-23T07:33:56.064Z,5.61
2022-12-23T07:39:18.064Z,5.61
2022-12-23T07:44:40.022Z,5.66
2022-12-23T07:50:02.250Z,5.69
2022-12-23T07:55:24.282Z,5.64
2022-12-23T08:00:45.811Z,5.61
2022-12-23T08:06:14.430Z,5.63
2022-12-23T08:11:36.294Z,5.64
2022-12-23T08:16:58.174Z,5.68
2022-12-23T08:22:20.149Z,5.72
2022-12-23T08:27:41.889Z,5.73
2022-12-23T08:33:03.806Z,5.76
2022-12-23T08:38:25.739Z,5.78
2022-12-23T08:43:48.190Z,5.80
2022-12-23T08:49:11.000Z,5.84
2022-12-23T08:54:33.233Z,5.90
2022-12-23T08:59:55.060Z,6.00
2022-12-23T09:05:16.895Z,6.07
2022-12-23T09:10:44.437Z,6.14
2022-12-23T09:16:07.050Z,6.16
2022-12-23T09:21:29.099Z,6.20
2022-12-23T09:26:51.130Z,6.25
2022-12-23T09:32:13.259Z,6.29
2022-12-23T09:37:36.385Z,6.31
2022-12-23T09:43:07.053Z,6.37
2022-12-23T09:48:35.024Z,6.43
2022-12-23T09:54:17.548Z,6.45
2022-12-23T09:59:45.555Z,6.50
2022-12-23T10:05:19.728Z,6.59
2022-12-23T10:11:01.796Z,6.66
2022-12-23T10:16:26.723Z,6.70
2022-12-23T10:21:52.211Z,6.74
2022-12-23T10:27:36.031Z,6.74
2022-12-23T10:33:00.569Z,6.76
2022-12-23T10:38:31.519Z,6.83
2022-12-23T10:44:18.435Z,6.88
2022-12-23T10:49:54.822Z,6.87
2022-12-23T10:55:31.270Z,6.91
2022-12-23T11:00:58.833Z,6.94
2022-12-23T11:06:21.683Z,6.91
2022-12-23T11:11:59.068Z,6.89
2022-12-23T11:17:24.901Z,6.87
2022-12-23T11:23:06.207Z,6.88
2022-12-23T11:28:28.650Z,6.84
2022-12-23T11:34:02.011Z,6.83
2022-12-23T11:39:29.141Z,6.82
2022-12-23T11:44:53.719Z,6.81
2022-12-23T11:50:29.085Z,6.82
2022-12-23T11:56:07.136Z,6.78
2022-12-23T12:01:29.385Z,6.80
2022-12-23T12:06:56.275Z,6.79
2022-12-23T12:12:21.300Z,6.81
2022-12-23T12:17:47.554Z,6.83
2022-12-23T12:23:37.929Z,6.86
2022-12-23T12:29:25.660Z,6.91
2022-12-23T12:34:47.494Z,6.94
2022-12-23T12:40:18.449Z,6.98
2022-12-23T12:46:04.084Z,7.04
2022-12-23T12:51:39.673Z,7.06
2022-12-23T12:57:02.485Z,7.05
2022-12-23T13:02:31.343Z,7.11
2022-12-23T13:08:02.068Z,7.13
2022-12-23T13:13:46.189Z,7.16
2022-12-23T13:19:28.390Z,7.21
2022-12-23T13:25:08.587Z,7.21
2022-12-23T13:30:36.763Z,7.26
2022-12-23T13:36:13.572Z,7.31
2022-12-23T13:41:48.490Z,7.33
2022-12-23T13:47:19.052Z,7.33
2022-12-23T13:52:43.986Z,7.30
2022-12-23T13:58:11.942Z,7.24
2022-12-23T14:03:35.275Z,7.19
2022-12-23T14:08:57.404Z,7.20
2022-12-23T14:14:22.926Z,7.16
2022-12-23T14:20:02.854Z,7.20
2022-12-23T14:25:44.142Z,7.22
2022-12-23T14:31:06.307Z,7.24
2022-12-23T14:36:28.789Z,7.17
2022-12-23T14:41:53.436Z,7.03
2022-12-23T14:47:32.132Z,7.01
2022-12-23T14:53:02.363Z,7.02
2022-12-23T14:58:29.592Z,6.94
2022-12-23T15:03:59.076Z,6.91
2022-12-23T15:09:32.463Z,6.91
2022-12-23T15:14:58.002Z,6.81
2022-12-23T15:20:23.307Z,6.71
2022-12-23T15:25:46.884Z,6.65
2022-12-23T15:31:27.512Z,6.51
2022-12-23T15:36:54.551Z,6.56
2022-12-23T15:42:35.644Z,6.62
2022-12-23T15:47:57.748Z,6.64
2022-12-23T15:53:20.068Z,6.66
2022-12-23T15:58:44.120Z,6.62
2022-12-23T16:04:07.146Z,6.54
2022-12-23T16:09:36.105Z,6.52
2022-12-23T16:15:01.011Z,6.46
2022-12-23T16:20:26.885Z,6.38
2022-12-23T16:25:51.774Z,6.28
2022-12-23T16:31:16.910Z,6.21
2022-12-23T16:36:38.931Z,6.15
2022-12-23T16:42:00.821Z,6.10
2022-12-23T16:47:23.159Z,6.09
2022-12-23T16:52:44.777Z,6.08
2022-12-23T16:58:06.609Z,6.07
2022-12-23T17:03:28.639Z,6.09
2022-12-23T17:08:51.172Z,6.08
2022-12-23T17:14:19.117Z,6.07
2022-12-23T17:19:40.972Z,6.04
2022-12-23T17:25:04.543Z,6.03
2022-12-23T17:30:26.615Z,6.04
2022-12-23T17:35:48.550Z,6.07
2022-12-23T17:41:27.904Z,6.09
2022-12-23T17:46:49.764Z,6.10
2022-12-23T17:52:20.277Z,6.15
2022-12-23T17:57:42.250Z,6.17
2022-12-23T18:03:07.516Z,6.19
2022-12-23T18:08:29.323Z,6.20
2022-12-23T18:13:52.065Z,6.19
2022-12-23T18:19:18.295Z,6.18
2022-12-23T18:24:39.851Z,6.20
2022-12-23T18:30:01.732Z,6.24
2022-12-23T18:35:28.110Z,6.26
2022-12-23T18:40:53.946Z,6.24
2022-12-23T18:46:15.872Z,6.23
2022-12-23T18:51:37.932Z,6.22
2022-12-23T18:57:01.212Z,6.20
2022-12-23T19:02:23.128Z,6.17
2022-12-23T19:07:46.500Z,6.16
2022-12-23T19:13:09.338Z,6.19
2022-12-23T19:18:31.123Z,6.23
2022-12-23T19:23:53.156Z,6.26
2022-12-23T19:29:15.076Z,6.31
2022-12-23T19:34:36.875Z,6.31
2022-12-23T19:39:59.968Z,6.32
2022-12-23T19:45:21.681Z,6.33
2022-12-23T19:50:43.274Z,6.35
2022-12-23T19:56:06.609Z,6.35
2022-12-23T20:01:28.751Z,6.38
2022-12-23T20:06:51.435Z,6.42
2022-12-23T20:12:13.113Z,6.41
2022-12-23T20:17:35.099Z,6.39
2022-12-23T20:22:57.034Z,6.41
2022-12-23T20:28:19.613Z,6.47
2022-12-23T20:33:45.042Z,6.51
2022-12-23T20:39:06.975Z,6.49
2022-12-23T20:44:37.267Z,6.47
2022-12-23T20:49:59.717Z,6.48
2022-12-23T20:55:21.227Z,6.52
2022-12-23T21:00:42.970Z,6.51
2022-12-23T21:06:06.009Z,6.52
2022-12-23T21:11:29.641Z,6.56
2022-12-23T21:16:51.669Z,6.58
2022-12-23T21:22:13.340Z,6.61
2022-12-23T21:27:35.331Z,6.62
2022-12-23T21:33:00.376Z,6.59
2022-12-23T21:38:22.101Z,6.57
2022-12-23T21:43:44.342Z,6.57
2022-12-23T21:49:06.265Z,6.60
2022-12-23T21:54:28.012Z,6.64
2022-12-23T21:59:50.117Z,6.68
2022-12-23T22:05:12.042Z,6.74
2022-12-23T22:10:37.597Z,6.75
2022-12-23T22:15:59.340Z,6.78
2022-12-23T22:21:23.782Z,6.79
2022-12-23T22:26:45.639Z,6.79
2022-12-23T22:32:07.760Z,6.79
2022-12-23T22:37:29.444Z,6.84
2022-12-23T22:42:51.371Z,6.84
2022-12-23T22:48:13.708Z,6.84
2022-12-23T22:53:36.640Z,6.86
2022-12-23T22:58:58.890Z,6.84
2022-12-23T23:04:20.905Z,6.88
2022-12-23T23:09:42.827Z,6.89
2022-12-23T23:15:05.662Z,6.83
2022-12-23T23:20:27.786Z,6.70
2022-12-23T23:25:49.730Z,6.64
2022-12-23T23:36:54.143Z,6.55
2022-12-23T23:42:18.002Z,6.55
2022-12-23T23:47:40.013Z,6.55
2022-12-23T23:53:01.547Z,6.59
2022-12-23T23:58:23.507Z,6.58
